nws-alerts: Checking more than four warning/county codes can delay the loading of your pages. You should use a cron job to get the data.
EllijayWeather Station Historical Data
 
Daily Summary for January 18, 2020 Units:  English    Metric   Both
Daily Weekly Monthly Yearly Custom
  Current: High: Low: Average:
Temperature: 45 °F 45.5 °F 35.4 °F 41.1 °F
Dew Point: 44.2 °F 44.2 °F 20.8 °F 32.9 °F
Humidity: 97% 98% 42% 75%
Wind Speed: 0mph 8.9mph 0mph 1.5mph
Wind Gust: 0mph 12mph - -
WindCalm - - SE
Pressure: 30.19 in 30.55 in 30.19 in -
Precipitation: 0.34 in      
Historical Graphs
 
 
Tabular Data for January 18, 2020
Time Temperature Dew Point Pressure Wind Wind Speed Wind Gust Humidity Rainfall Rate (Hourly) solar
00:00 42.3 °F 21.4 °F 30.55 in SE 0.9 mph 4 mph 43% 0 in meteobridge W/m2
00:05 42.3 °F 20.8 °F 30.55 in SE 6 mph 11 mph 42% 0 in meteobridge W/m2
00:10 42.3 °F 21.4 °F 30.55 in East 4 mph 5 mph 43% 0 in meteobridge W/m2
00:15 42.1 °F 21.2 °F 30.55 in SE 2 mph 7 mph 43% 0 in meteobridge W/m2
00:20 42.1 °F 21.2 °F 30.55 in ESE 8.9 mph 11 mph 43% 0 in meteobridge W/m2
00:25 42.1 °F 21.7 °F 30.55 in SE 0.9 mph 2 mph 44% 0 in meteobridge W/m2
00:30 41.9 °F 21 °F 30.55 in SE 6 mph 9 mph 43% 0 in meteobridge W/m2
00:35 41.7 °F 21.9 °F 30.55 in SSE 0.9 mph 7 mph 45% 0 in meteobridge W/m2
00:40 41.7 °F 21.4 °F 30.55 in ESE 2 mph 7 mph 44% 0 in meteobridge W/m2
00:45 41.7 °F 21.9 °F 30.54 in SE 0.9 mph 5 mph 45% 0 in meteobridge W/m2
00:50 41.5 °F 21.7 °F 30.55 in South 2 mph 6 mph 45% 0 in meteobridge W/m2
00:55 41.5 °F 21.7 °F 30.54 in ESE 4 mph 4 mph 45% 0 in meteobridge W/m2
01:00 41.4 °F 21.6 °F 30.55 in SE 2 mph 5 mph 45% 0 in meteobridge W/m2
01:05 41.4 °F 21.6 °F 30.54 in SE 0.9 mph 8 mph 45% 0 in meteobridge W/m2
01:10 41.4 °F 21.6 °F 30.54 in SE 0.9 mph 6 mph 45% 0 in meteobridge W/m2
01:15 41.2 °F 21.4 °F 30.53 in SE 4.9 mph 11 mph 45% 0 in meteobridge W/m2
01:20 41.2 °F 21.4 °F 30.53 in ESE 2 mph 8 mph 45% 0 in meteobridge W/m2
01:25 41.2 °F 22.5 °F 30.53 in ESE 2 mph 6 mph 47% 0 in meteobridge W/m2
01:30 41 °F 21.2 °F 30.53 in SE 4 mph 9 mph 45% 0 in meteobridge W/m2
01:35 40.8 °F 21.6 °F 30.53 in ESE 4 mph 6 mph 46% 0 in meteobridge W/m2
01:40 40.8 °F 21.6 °F 30.52 in ESE 4 mph 6 mph 46% 0 in meteobridge W/m2
01:45 40.8 °F 21.2 °F 30.51 in SE 6.9 mph 9 mph 45% 0 in meteobridge W/m2
01:50 40.6 °F 21.9 °F 30.51 in Calm   2 mph 47% 0 in meteobridge W/m2
01:55 40.6 °F 21.6 °F 30.51 in SE 0.9 mph 6 mph 46% 0 in meteobridge W/m2
02:00 40.6 °F 21.6 °F 30.50 in ESE 0.9 mph 7 mph 46% 0 in meteobridge W/m2
02:05 40.6 °F 21.6 °F 30.51 in ESE 2 mph 4 mph 46% 0 in meteobridge W/m2
02:10 40.5 °F 22.3 °F 30.51 in SE 2 mph 4 mph 48% 0 in meteobridge W/m2
02:15 40.5 °F 21.7 °F 30.51 in ESE 4 mph 11 mph 47% 0 in meteobridge W/m2
02:20 40.5 °F 22.3 °F 30.51 in SE 4.9 mph 8 mph 48% 0 in meteobridge W/m2
02:25 40.5 °F 21.7 °F 30.50 in Calm   5 mph 47% 0 in meteobridge W/m2
02:30 40.3 °F 22.1 °F 30.51 in ESE 2 mph 5 mph 48% 0 in meteobridge W/m2
02:35 40.3 °F 21.7 °F 30.51 in SE 6 mph 7 mph 47% 0 in meteobridge W/m2
02:40 40.3 °F 22.1 °F 30.51 in ESE 0.9 mph 4 mph 48% 0 in meteobridge W/m2
02:45 39.9 °F 21.7 °F 30.51 in East 0.9 mph 5 mph 48% 0 in meteobridge W/m2
02:50 39.9 °F 21.7 °F 30.50 in ESE 2 mph 8 mph 48% 0 in meteobridge W/m2
02:55 39.9 °F 21.7 °F 30.51 in SE 2 mph 12 mph 48% 0 in meteobridge W/m2
03:00 39.9 °F 21.7 °F 30.51 in SE 0.9 mph 5 mph 48% 0 in meteobridge W/m2
03:05 39.9 °F 21.7 °F 30.51 in ESE 4.9 mph 5 mph 48% 0 in meteobridge W/m2
03:10 39.9 °F 21.7 °F 30.51 in ESE 2 mph 8 mph 48% 0 in meteobridge W/m2
03:15 39.7 °F 21.7 °F 30.50 in East 4.9 mph 9 mph 48% 0 in meteobridge W/m2
03:20 39.7 °F 21.7 °F 30.50 in SE 6 mph 9 mph 48% 0 in meteobridge W/m2
03:25 39.7 °F 22.1 °F 30.50 in SE 6.9 mph 8 mph 49% 0 in meteobridge W/m2
03:30 39.6 °F 22.5 °F 30.50 in ESE 4.9 mph 7 mph 50% 0 in meteobridge W/m2
03:35 39.7 °F 22.6 °F 30.50 in ESE 4.9 mph 5 mph 50% 0 in meteobridge W/m2
03:40 39.6 °F 21.9 °F 30.49 in SE 4.9 mph 5 mph 49% 0 in meteobridge W/m2
03:45 39.7 °F 22.6 °F 30.50 in ESE 6 mph 8 mph 50% 0 in meteobridge W/m2
03:50 39.7 °F 22.1 °F 30.49 in SE 0.9 mph 8 mph 49% 0 in meteobridge W/m2
03:55 39.7 °F 22.6 °F 30.49 in East 4.9 mph 6 mph 50% 0 in meteobridge W/m2
04:00 39.7 °F 22.6 °F 30.48 in SE 4.9 mph 8 mph 50% 0 in meteobridge W/m2
04:05 39.7 °F 22.1 °F 30.47 in SE 4 mph 6 mph 49% 0 in meteobridge W/m2
04:10 39.7 °F 22.6 °F 30.47 in ESE 4 mph 6 mph 50% 0 in meteobridge W/m2
04:15 39.7 °F 23.2 °F 30.47 in SE 4 mph 7 mph 51% 0 in meteobridge W/m2
04:20 39.6 °F 22.5 °F 30.47 in SE 0.9 mph 6 mph 50% 0 in meteobridge W/m2
04:25 39.7 °F 23.2 °F 30.47 in SE 4.9 mph 5 mph 51% 0 in meteobridge W/m2
04:30 39.7 °F 23.2 °F 30.46 in SE 0.9 mph 6 mph 51% 0 in meteobridge W/m2
04:35 39.7 °F 23.2 °F 30.47 in East 6 mph 8 mph 51% 0 in meteobridge W/m2
04:40 39.6 °F 22.5 °F 30.47 in SE 4 mph 11 mph 50% 0 in meteobridge W/m2
04:45 39.6 °F 23 °F 30.47 in Calm   6 mph 51% 0 in meteobridge W/m2
04:50 39.6 °F 23 °F 30.46 in East 2 mph 8 mph 51% 0 in meteobridge W/m2
04:55 39.6 °F 23 °F 30.47 in South 0.9 mph 8 mph 51% 0 in meteobridge W/m2
05:00 39.4 °F 22.8 °F 30.47 in ESE 4.9 mph 8 mph 51% 0 in meteobridge W/m2
05:05 39.4 °F 23.2 °F 30.47 in ESE 2 mph 8 mph 52% 0 in meteobridge W/m2
05:10 39.4 °F 23.2 °F 30.47 in ESE 4.9 mph 9 mph 52% 0 in meteobridge W/m2
05:15 39.4 °F 23.2 °F 30.47 in SE 4.9 mph 8 mph 52% 0 in meteobridge W/m2
05:20 39.4 °F 23.2 °F 30.46 in SE 4 mph 11 mph 52% 0 in meteobridge W/m2
05:25 39.4 °F 23.2 °F 30.46 in SE 2 mph 9 mph 52% 0 in meteobridge W/m2
05:30 39.2 °F 23.5 °F 30.46 in SE 4.9 mph 6 mph 53% 0 in meteobridge W/m2
05:35 39.2 °F 23.9 °F 30.46 in SE 4.9 mph 8 mph 54% 0 in meteobridge W/m2
05:40 39.2 °F 23.9 °F 30.46 in SE 4.9 mph 7 mph 54% 0 in meteobridge W/m2
05:45 39.2 °F 23.9 °F 30.45 in SE 6 mph 6 mph 54% 0 in meteobridge W/m2
05:50 39.2 °F 23.9 °F 30.46 in ESE 0.9 mph 7 mph 54% 0 in meteobridge W/m2
05:55 39.2 °F 23.9 °F 30.46 in SE 0.9 mph 8 mph 54% 0 in meteobridge W/m2
06:00 39.2 °F 26.1 °F 30.45 in SSE 2 mph 4 mph 59% 0 in meteobridge W/m2
06:05 38.7 °F 26.8 °F 30.45 in SE 4.9 mph 6 mph 62% 0 in meteobridge W/m2
06:10 38.1 °F 26.6 °F 30.45 in ESE 0.9 mph 6 mph 63% 0 in meteobridge W/m2
06:15 38.1 °F 26.6 °F 30.45 in SE 0.9 mph 6 mph 63% 0 in meteobridge W/m2
06:20 37.9 °F 26.8 °F 30.45 in Calm   5 mph 64% 0 in meteobridge W/m2
06:25 37.9 °F 26.4 °F 30.45 in Calm   4 mph 63% 0 in meteobridge W/m2
06:30 38.3 °F 26.4 °F 30.44 in East 2 mph 5 mph 62% 0 in meteobridge W/m2
06:35 38.5 °F 25.9 °F 30.44 in SE 0.9 mph 5 mph 60% 0 in meteobridge W/m2
06:40 38.7 °F 26.1 °F 30.44 in SE 4 mph 7 mph 60% 0 in meteobridge W/m2
06:45 38.8 °F 26.1 °F 30.45 in SE 0.9 mph 2 mph 60% 0 in meteobridge W/m2
06:50 38.8 °F 26.1 °F 30.45 in SE 0.9 mph 6 mph 60% 0 in meteobridge W/m2
06:55 39 °F 25.9 °F 30.45 in ESE 4 mph 6 mph 59% 0 in meteobridge W/m2
07:00 39 °F 25.5 °F 30.45 in East 0.9 mph 6 mph 58% 0 in meteobridge W/m2
07:05 39.2 °F 26.1 °F 30.44 in SE 8.9 mph 9 mph 59% 0 in meteobridge W/m2
07:10 39.2 °F 27 °F 30.44 in SE 4.9 mph 5 mph 61% 0 in meteobridge W/m2
07:15 39.2 °F 26.1 °F 30.44 in SE 0.9 mph 2 mph 59% 0 in meteobridge W/m2
07:20 39.4 °F 27.1 °F 30.43 in SE 2 mph 9 mph 61% 0 in meteobridge W/m2
07:25 38.8 °F 30.2 °F 30.43 in SSE 0.9 mph 7 mph 71% 0.01 in meteobridge W/m2
07:30 37.6 °F 32 °F 30.43 in SSE 2 mph 7 mph 80% 0.03 in meteobridge W/m2
07:35 36.5 °F 32.2 °F 30.43 in SE 0.9 mph 2 mph 84% 0.04 in meteobridge W/m2
07:40 36 °F 31.6 °F 30.43 in Calm   6 mph 84% 0.04 in meteobridge W/m2
07:45 35.8 °F 32.4 °F 30.43 in SE 0.9 mph 4 mph 87% 0.04 in meteobridge W/m2
07:50 35.4 °F 32.5 °F 30.43 in Calm   1 mph 89% 0.04 in meteobridge W/m2
07:55 35.4 °F 32.7 °F 30.43 in SE 4 mph 4 mph 90% 0.04 in meteobridge W/m2
08:00 35.4 °F 32.7 °F 30.43 in ESE 0.9 mph 2 mph 90% 0.04 in meteobridge W/m2
08:05 35.6 °F 32.9 °F 30.43 in SE 2 mph 4 mph 90% 0.04 in meteobridge W/m2
08:10 35.6 °F 32.9 °F 30.43 in Calm   4 mph 90% 0.04 in meteobridge W/m2
08:15 35.8 °F 32.9 °F 30.43 in Calm   4 mph 89% 0.04 in meteobridge W/m2
08:20 35.8 °F 33.1 °F 30.42 in Calm   2 mph 90% 0.04 in meteobridge W/m2
08:25 35.8 °F 32.5 °F 30.42 in Calm   2 mph 88% 0.03 in meteobridge W/m2
08:30 36 °F 32.7 °F 30.42 in Calm   2 mph 88% 0.01 in meteobridge W/m2
08:35 36.1 °F 33.3 °F 30.42 in Calm   2 mph 89% 0 in meteobridge W/m2
08:40 36.1 °F 32.9 °F 30.41 in Calm   1 mph 88% 0 in meteobridge W/m2
08:45 36.3 °F 33.4 °F 30.40 in ESE 2 mph 4 mph 89% 0 in meteobridge W/m2
08:50 36.3 °F 33.1 °F 30.40 in SE 0.9 mph 7 mph 88% 0 in meteobridge W/m2
08:55 36.7 °F 33.8 °F 30.40 in SE 0.9 mph 4 mph 89% 0 in meteobridge W/m2
09:00 37 °F 33.8 °F 30.40 in East 0.9 mph 4 mph 88% 0 in meteobridge W/m2
09:05 37.2 °F 34.3 °F 30.39 in SSE 2 mph 4 mph 89% 0 in meteobridge W/m2
09:10 37.8 °F 34.5 °F 30.38 in ESE 2 mph 6 mph 88% 0 in meteobridge W/m2
09:15 37.9 °F 34.3 °F 30.38 in ESE 0.9 mph 2 mph 87% 0 in meteobridge W/m2
09:20 37.9 °F 34.3 °F 30.37 in East 2 mph 5 mph 87% 0 in meteobridge W/m2
09:25 38.1 °F 34.5 °F 30.37 in Calm   1 mph 87% 0 in meteobridge W/m2
09:30 38.1 °F 34.9 °F 30.37 in East 0.9 mph 1 mph 88% 0 in meteobridge W/m2
09:35 38.5 °F 35.2 °F 30.37 in East 0.9 mph 1 mph 88% 0 in meteobridge W/m2
09:40 38.7 °F 35.8 °F 30.38 in Calm     89% 0 in meteobridge W/m2
09:45 39 °F 36.1 °F 30.38 in Calm   1 mph 89% 0 in meteobridge W/m2
09:50 39.4 °F 36.5 °F 30.38 in Calm   1 mph 89% 0 in meteobridge W/m2
09:55 39.6 °F 36.3 °F 30.39 in Calm   2 mph 88% 0 in meteobridge W/m2
10:00 39.7 °F 36.7 °F 30.39 in Calm   2 mph 89% 0 in meteobridge W/m2
10:05 39.7 °F 36.5 °F 30.39 in Calm   1 mph 88% 0 in meteobridge W/m2
10:10 39.7 °F 36.1 °F 30.39 in Calm     87% 0 in meteobridge W/m2
10:15 39.6 °F 36 °F 30.39 in Calm   1 mph 87% 0 in meteobridge W/m2
10:20 39.6 °F 36.3 °F 30.40 in Calm   2 mph 88% 0 in meteobridge W/m2
10:25 39.6 °F 36.3 °F 30.40 in Calm   1 mph 88% 0 in meteobridge W/m2
10:30 39.4 °F 36.1 °F 30.39 in Calm   2 mph 88% 0 in meteobridge W/m2
10:35 39.4 °F 36.1 °F 30.39 in Calm   4 mph 88% 0 in meteobridge W/m2
10:40 39.6 °F 37.4 °F 30.39 in SE 0.9 mph 5 mph 92% 0 in meteobridge W/m2
10:45 39.9 °F 37.2 °F 30.39 in NNW 0.9 mph 4 mph 90% 0 in meteobridge W/m2
10:50 40.1 °F 37 °F 30.39 in Calm   2 mph 89% 0 in meteobridge W/m2
10:55 40.1 °F 37 °F 30.39 in Calm   3 mph 89% 0 in meteobridge W/m2
11:00 40.3 °F 37.2 °F 30.38 in Calm   2 mph 89% 0 in meteobridge W/m2
11:05 40.3 °F 37.2 °F 30.37 in Calm     89% 0 in meteobridge W/m2
11:10 40.5 °F 37.4 °F 30.37 in Calm     89% 0 in meteobridge W/m2
11:15 40.6 °F 37.6 °F 30.36 in Calm     89% 0 in meteobridge W/m2
11:20 40.8 °F 37.8 °F 30.36 in Calm     89% 0 in meteobridge W/m2
11:25 41 °F 37.9 °F 30.37 in Calm   1 mph 89% 0 in meteobridge W/m2
11:30 41.4 °F 38.3 °F 30.36 in NNE 0.9 mph 2 mph 89% 0 in meteobridge W/m2
11:35 41.5 °F 38.8 °F 30.36 in Calm   1 mph 90% 0 in meteobridge W/m2
11:40 41.4 °F 38.3 °F 30.37 in Calm     89% 0 in meteobridge W/m2
11:45 41.5 °F 39.4 °F 30.38 in Calm   1 mph 92% 0.02 in meteobridge W/m2
11:50 41.4 °F 39.2 °F 30.37 in Calm   2 mph 92% 0.03 in meteobridge W/m2
11:55 41.2 °F 39.4 °F 30.37 in Calm   2 mph 93% 0.04 in meteobridge W/m2
12:00 41 °F 39.2 °F 30.37 in WSW 0.9 mph 3 mph 93% 0.05 in meteobridge W/m2
12:05 40.8 °F 39.2 °F 30.38 in NNW 0.9 mph 1 mph 94% 0.07 in meteobridge W/m2
12:10 40.8 °F 39.2 °F 30.37 in Calm   1 mph 94% 0.1 in meteobridge W/m2
12:15 40.8 °F 39.6 °F 30.36 in Calm     95% 0.11 in meteobridge W/m2
12:20 40.6 °F 39.4 °F 30.35 in Calm   1 mph 95% 0.12 in meteobridge W/m2
12:25 40.6 °F 39.4 °F 30.34 in Calm   2 mph 95% 0.12 in meteobridge W/m2
12:30 40.8 °F 39.7 °F 30.33 in Calm   1 mph 96% 0.12 in meteobridge W/m2
12:35 41.2 °F 40.1 °F 30.33 in Calm   3 mph 96% 0.12 in meteobridge W/m2
12:40 41.9 °F 41.2 °F 30.32 in Calm   5 mph 97% 0.12 in meteobridge W/m2
12:45 42.6 °F 41.9 °F 30.32 in WNW 2.9 mph 4 mph 97% 0.1 in meteobridge W/m2
12:50 43 °F 42.3 °F 30.32 in Calm   1 mph 97% 0.09 in meteobridge W/m2
12:55 43.5 °F 43 °F 30.31 in Calm   2 mph 98% 0.08 in meteobridge W/m2
13:00 44.2 °F 43.5 °F 30.30 in ESE 0.9 mph 5 mph 97% 0.07 in meteobridge W/m2
13:05 44.8 °F 43.7 °F 30.30 in Calm   7 mph 96% 0.05 in meteobridge W/m2
13:10 45 °F 43.7 °F 30.30 in West 2 mph 3 mph 95% 0.02 in meteobridge W/m2
13:15 45.3 °F 44.1 °F 30.29 in Calm   5 mph 95% 0.01 in meteobridge W/m2
13:20 45.5 °F 43.9 °F 30.30 in ESE 2 mph 4 mph 94% 0 in meteobridge W/m2
13:25 45.5 °F 43.9 °F 30.29 in East 4.9 mph 5 mph 94% 0 in meteobridge W/m2
13:30 45.5 °F 43.3 °F 30.28 in SSE 0.9 mph 2 mph 92% 0 in meteobridge W/m2
13:35 45.3 °F 43.2 °F 30.28 in SSE 0.9 mph 1 mph 92% 0 in meteobridge W/m2
13:40 45.3 °F 43.3 °F 30.28 in Calm   1 mph 93% 0 in meteobridge W/m2
13:45 45.3 °F 43.2 °F 30.27 in ESE 0.9 mph 4 mph 92% 0 in meteobridge W/m2
13:50 45.3 °F 43.3 °F 30.27 in ESE 0.9 mph 6 mph 93% 0.01 in meteobridge W/m2
13:55 45.3 °F 43.2 °F 30.27 in SSW 0.9 mph 4 mph 92% 0.01 in meteobridge W/m2
14:00 45.1 °F 43 °F 30.27 in Calm   4 mph 92% 0.02 in meteobridge W/m2
14:05 45.1 °F 43.2 °F 30.26 in Calm   6 mph 93% 0.02 in meteobridge W/m2
14:10 45 °F 43 °F 30.26 in Calm     93% 0.02 in meteobridge W/m2
14:15 45 °F 43.3 °F 30.26 in Calm     94% 0.02 in meteobridge W/m2
14:20 44.8 °F 43.2 °F 30.25 in ESE 2 mph 2 mph 94% 0.02 in meteobridge W/m2
14:25 44.8 °F 43.2 °F 30.25 in Calm   1 mph 94% 0.03 in meteobridge W/m2
14:30 44.8 °F 43.2 °F 30.24 in SSW 0.9 mph 5 mph 94% 0.04 in meteobridge W/m2
14:35 44.8 °F 43.2 °F 30.23 in ESE 0.9 mph 4 mph 94% 0.04 in meteobridge W/m2
14:40 45 °F 43.7 °F 30.24 in Calm     95% 0.04 in meteobridge W/m2
14:45 45 °F 43.7 °F 30.24 in SSE 0.9 mph 8 mph 95% 0.07 in meteobridge W/m2
14:50 45 °F 43.3 °F 30.24 in Calm   4 mph 94% 0.06 in meteobridge W/m2
14:55 45 °F 43.7 °F 30.23 in Calm   1 mph 95% 0.06 in meteobridge W/m2
15:00 45 °F 43.3 °F 30.23 in Calm   4 mph 94% 0.05 in meteobridge W/m2
15:05 45 °F 43.3 °F 30.22 in Calm     94% 0.05 in meteobridge W/m2
15:10 45 °F 43.7 °F 30.23 in Calm   2 mph 95% 0.05 in meteobridge W/m2
15:15 45 °F 43.7 °F 30.23 in Calm   1 mph 95% 0.05 in meteobridge W/m2
15:20 45 °F 43.7 °F 30.23 in Calm   1 mph 95% 0.04 in meteobridge W/m2
15:25 45 °F 43.7 °F 30.23 in Calm   1 mph 95% 0.05 in meteobridge W/m2
15:30 45 °F 43.7 °F 30.23 in Calm   1 mph 95% 0.05 in meteobridge W/m2
15:35 44.8 °F 43.5 °F 30.23 in Calm   1 mph 95% 0.06 in meteobridge W/m2
15:40 44.8 °F 43.7 °F 30.23 in Calm   4 mph 96% 0.07 in meteobridge W/m2
15:45 44.8 °F 43.7 °F 30.23 in Calm     96% 0.04 in meteobridge W/m2
15:50 44.8 °F 43.7 °F 30.23 in Calm   3 mph 96% 0.04 in meteobridge W/m2
15:55 44.6 °F 43.5 °F 30.23 in Calm     96% 0.04 in meteobridge W/m2
16:00 44.6 °F 43.5 °F 30.23 in Calm   2 mph 96% 0.04 in meteobridge W/m2
16:05 44.4 °F 43.3 °F 30.23 in Calm   3 mph 96% 0.04 in meteobridge W/m2
16:10 44.4 °F 43.3 °F 30.23 in Calm     96% 0.06 in meteobridge W/m2
16:15 44.4 °F 43.3 °F 30.23 in Calm     96% 0.08 in meteobridge W/m2
16:20 44.4 °F 43.3 °F 30.23 in Calm   1 mph 96% 0.08 in meteobridge W/m2
16:25 44.4 °F 43.3 °F 30.23 in Calm     96% 0.07 in meteobridge W/m2
16:30 44.2 °F 43.2 °F 30.22 in Calm   2 mph 96% 0.06 in meteobridge W/m2
16:35 44.2 °F 43.2 °F 30.23 in Calm   1 mph 96% 0.06 in meteobridge W/m2
16:40 44.2 °F 43.2 °F 30.22 in Calm     96% 0.05 in meteobridge W/m2
16:45 44.2 °F 43.2 °F 30.22 in Calm     96% 0.05 in meteobridge W/m2
16:50 44.2 °F 43.2 °F 30.22 in Calm     96% 0.05 in meteobridge W/m2
16:55 44.1 °F 43 °F 30.22 in Calm     96% 0.06 in meteobridge W/m2
17:00 44.1 °F 43 °F 30.22 in Calm     96% 0.06 in meteobridge W/m2
17:05 44.2 °F 43.2 °F 30.22 in Calm     96% 0.06 in meteobridge W/m2
17:10 44.2 °F 43.5 °F 30.22 in Calm     97% 0.04 in meteobridge W/m2
17:15 44.2 °F 43.2 °F 30.21 in Calm   1 mph 96% 0.03 in meteobridge W/m2
17:20 44.2 °F 43.5 °F 30.21 in Calm     97% 0.03 in meteobridge W/m2
17:25 44.4 °F 43.7 °F 30.21 in Calm     97% 0.03 in meteobridge W/m2
17:30 44.4 °F 43.7 °F 30.21 in Calm     97% 0.03 in meteobridge W/m2
17:35 44.4 °F 43.7 °F 30.21 in Calm     97% 0.02 in meteobridge W/m2
17:40 44.6 °F 43.9 °F 30.20 in Calm     97% 0.02 in meteobridge W/m2
17:45 44.8 °F 44.1 °F 30.20 in Calm     97% 0.02 in meteobridge W/m2
17:50 44.8 °F 44.1 °F 30.20 in Calm     97% 0.02 in meteobridge W/m2
17:55 44.8 °F 44.1 °F 30.20 in Calm     97% 0.01 in meteobridge W/m2
18:00 44.8 °F 44.1 °F 30.20 in Calm   1 mph 97% 0.01 in meteobridge W/m2
18:05 45 °F 44.2 °F 30.19 in Calm     97% 0.01 in meteobridge W/m2
18:10 45 °F 44.2 °F 30.19 in Calm     97% 0.01 in meteobridge W/m2
EllijayWeather
Compliments of Weather Underground - 2.25 mb